sensor_id;sensor_type;location;lat;lon;timestamp;P1;durP1;ratioP1;P2;durP2;ratioP2
38222;SDS011;24024;51.186;6.458;2023-10-31T00:02:23;3.53;;;2.35;;
38222;SDS011;24024;51.186;6.458;2023-10-31T00:04:49;3.38;;;2.40;;
38222;SDS011;24024;51.186;6.458;2023-10-31T00:07:21;3.15;;;1.80;;
38222;SDS011;24024;51.186;6.458;2023-10-31T00:09:47;4.95;;;2.35;;
38222;SDS011;24024;51.186;6.458;2023-10-31T00:12:14;5.03;;;2.42;;
38222;SDS011;24024;51.186;6.458;2023-10-31T00:14:41;3.53;;;2.33;;
38222;SDS011;24024;51.186;6.458;2023-10-31T00:17:08;4.43;;;2.15;;
38222;SDS011;24024;51.186;6.458;2023-10-31T00:19:35;3.15;;;1.95;;
38222;SDS011;24024;51.186;6.458;2023-10-31T00:22:01;3.78;;;1.90;;
38222;SDS011;24024;51.186;6.458;2023-10-31T00:24:28;3.17;;;1.60;;
38222;SDS011;24024;51.186;6.458;2023-10-31T00:26:58;2.78;;;1.60;;
38222;SDS011;24024;51.186;6.458;2023-10-31T00:29:25;4.05;;;1.52;;
38222;SDS011;24024;51.186;6.458;2023-10-31T00:31:51;5.30;;;1.40;;
38222;SDS011;24024;51.186;6.458;2023-10-31T00:34:19;2.83;;;1.70;;
38222;SDS011;24024;51.186;6.458;2023-10-31T00:36:51;4.68;;;1.60;;
38222;SDS011;24024;51.186;6.458;2023-10-31T00:39:20;3.85;;;1.80;;
38222;SDS011;24024;51.186;6.458;2023-10-31T00:41:48;3.78;;;1.70;;
38222;SDS011;24024;51.186;6.458;2023-10-31T00:44:17;7.07;;;2.08;;
38222;SDS011;24024;51.186;6.458;2023-10-31T00:46:44;3.78;;;1.60;;
38222;SDS011;24024;51.186;6.458;2023-10-31T00:49:10;4.97;;;1.70;;
38222;SDS011;24024;51.186;6.458;2023-10-31T00:51:40;5.28;;;2.22;;
38222;SDS011;24024;51.186;6.458;2023-10-31T00:54:07;5.80;;;2.45;;
38222;SDS011;24024;51.186;6.458;2023-10-31T00:56:33;5.45;;;2.47;;
38222;SDS011;24024;51.186;6.458;2023-10-31T00:59:03;7.97;;;3.72;;
38222;SDS011;24024;51.186;6.458;2023-10-31T01:01:30;5.05;;;2.38;;
38222;SDS011;24024;51.186;6.458;2023-10-31T01:03:56;4.55;;;3.00;;
38222;SDS011;24024;51.186;6.458;2023-10-31T01:06:23;6.43;;;3.20;;
38222;SDS011;24024;51.186;6.458;2023-10-31T01:08:50;6.28;;;3.20;;
38222;SDS011;24024;51.186;6.458;2023-10-31T01:11:19;6.50;;;3.40;;
38222;SDS011;24024;51.186;6.458;2023-10-31T01:13:45;6.00;;;3.60;;
38222;SDS011;24024;51.186;6.458;2023-10-31T01:16:14;6.22;;;3.42;;
38222;SDS011;24024;51.186;6.458;2023-10-31T01:18:41;7.68;;;3.58;;
38222;SDS011;24024;51.186;6.458;2023-10-31T01:21:08;9.15;;;3.55;;
38222;SDS011;24024;51.186;6.458;2023-10-31T01:23:35;7.13;;;3.67;;
38222;SDS011;24024;51.186;6.458;2023-10-31T01:26:02;7.22;;;3.80;;
38222;SDS011;24024;51.186;6.458;2023-10-31T01:28:29;7.38;;;3.50;;
38222;SDS011;24024;51.186;6.458;2023-10-31T01:30:55;7.95;;;3.78;;
38222;SDS011;24024;51.186;6.458;2023-10-31T01:33:22;7.88;;;3.75;;
38222;SDS011;24024;51.186;6.458;2023-10-31T01:35:51;6.95;;;3.85;;
38222;SDS011;24024;51.186;6.458;2023-10-31T01:38:18;7.68;;;4.00;;
38222;SDS011;24024;51.186;6.458;2023-10-31T01:40:48;7.95;;;4.35;;
38222;SDS011;24024;51.186;6.458;2023-10-31T01:43:33;8.70;;;4.00;;
38222;SDS011;24024;51.186;6.458;2023-10-31T01:46:04;8.48;;;4.60;;
38222;SDS011;24024;51.186;6.458;2023-10-31T01:48:32;11.85;;;5.30;;
38222;SDS011;24024;51.186;6.458;2023-10-31T01:51:00;6.88;;;4.60;;
38222;SDS011;24024;51.186;6.458;2023-10-31T01:53:29;7.40;;;4.88;;
38222;SDS011;24024;51.186;6.458;2023-10-31T01:56:00;11.07;;;5.43;;
38222;SDS011;24024;51.186;6.458;2023-10-31T01:58:30;9.65;;;4.65;;
38222;SDS011;24024;51.186;6.458;2023-10-31T02:00:59;8.27;;;5.50;;
38222;SDS011;24024;51.186;6.458;2023-10-31T02:03:27;8.30;;;4.82;;
38222;SDS011;24024;51.186;6.458;2023-10-31T02:05:57;9.98;;;5.45;;
38222;SDS011;24024;51.186;6.458;2023-10-31T02:08:24;10.10;;;5.80;;
38222;SDS011;24024;51.186;6.458;2023-10-31T02:10:51;9.55;;;5.60;;
38222;SDS011;24024;51.186;6.458;2023-10-31T02:13:20;11.65;;;6.22;;
38222;SDS011;24024;51.186;6.458;2023-10-31T02:15:47;8.80;;;5.75;;
38222;SDS011;24024;51.186;6.458;2023-10-31T02:18:14;10.18;;;5.85;;
38222;SDS011;24024;51.186;6.458;2023-10-31T02:20:41;12.20;;;6.65;;
38222;SDS011;24024;51.186;6.458;2023-10-31T02:23:08;12.27;;;6.63;;
38222;SDS011;24024;51.186;6.458;2023-10-31T02:25:37;11.13;;;6.90;;
38222;SDS011;24024;51.186;6.458;2023-10-31T02:28:04;10.90;;;6.22;;
38222;SDS011;24024;51.186;6.458;2023-10-31T02:30:33;12.55;;;6.70;;
38222;SDS011;24024;51.186;6.458;2023-10-31T02:33:03;11.75;;;6.90;;
38222;SDS011;24024;51.186;6.458;2023-10-31T02:35:30;11.13;;;6.75;;
38222;SDS011;24024;51.186;6.458;2023-10-31T02:37:56;11.80;;;6.88;;
38222;SDS011;24024;51.186;6.458;2023-10-31T02:40:26;11.70;;;6.95;;
38222;SDS011;24024;51.186;6.458;2023-10-31T02:42:52;13.45;;;7.47;;
38222;SDS011;24024;51.186;6.458;2023-10-31T02:45:19;11.07;;;7.03;;
38222;SDS011;24024;51.186;6.458;2023-10-31T02:47:48;11.90;;;6.93;;
38222;SDS011;24024;51.186;6.458;2023-10-31T02:50:17;11.57;;;7.53;;
38222;SDS011;24024;51.186;6.458;2023-10-31T02:52:44;11.60;;;7.03;;
38222;SDS011;24024;51.186;6.458;2023-10-31T02:55:10;10.77;;;6.90;;
38222;SDS011;24024;51.186;6.458;2023-10-31T02:57:37;14.82;;;7.30;;
38222;SDS011;24024;51.186;6.458;2023-10-31T03:00:06;11.70;;;6.82;;
38222;SDS011;24024;51.186;6.458;2023-10-31T03:02:33;10.68;;;6.47;;
38222;SDS011;24024;51.186;6.458;2023-10-31T03:05:00;12.52;;;6.35;;
38222;SDS011;24024;51.186;6.458;2023-10-31T03:07:28;13.02;;;7.15;;
38222;SDS011;24024;51.186;6.458;2023-10-31T03:09:57;12.48;;;6.45;;
38222;SDS011;24024;51.186;6.458;2023-10-31T03:12:23;11.40;;;6.50;;
38222;SDS011;24024;51.186;6.458;2023-10-31T03:14:50;12.88;;;6.43;;
38222;SDS011;24024;51.186;6.458;2023-10-31T03:17:17;12.18;;;6.72;;
38222;SDS011;24024;51.186;6.458;2023-10-31T03:19:44;10.90;;;6.18;;
38222;SDS011;24024;51.186;6.458;2023-10-31T03:22:13;13.55;;;7.18;;
38222;SDS011;24024;51.186;6.458;2023-10-31T03:24:39;11.68;;;6.60;;
38222;SDS011;24024;51.186;6.458;2023-10-31T03:27:06;11.50;;;5.68;;
38222;SDS011;24024;51.186;6.458;2023-10-31T03:29:33;9.00;;;5.68;;
38222;SDS011;24024;51.186;6.458;2023-10-31T03:32:00;12.25;;;6.40;;
38222;SDS011;24024;51.186;6.458;2023-10-31T03:34:27;12.25;;;6.25;;
38222;SDS011;24024;51.186;6.458;2023-10-31T03:36:56;10.88;;;5.82;;
38222;SDS011;24024;51.186;6.458;2023-10-31T03:39:23;9.25;;;5.57;;
38222;SDS011;24024;51.186;6.458;2023-10-31T03:41:52;9.57;;;5.40;;
38222;SDS011;24024;51.186;6.458;2023-10-31T03:44:21;9.80;;;4.82;;
38222;SDS011;24024;51.186;6.458;2023-10-31T03:46:48;7.65;;;4.60;;
38222;SDS011;24024;51.186;6.458;2023-10-31T03:49:19;9.05;;;4.50;;
38222;SDS011;24024;51.186;6.458;2023-10-31T03:51:48;9.45;;;5.13;;
38222;SDS011;24024;51.186;6.458;2023-10-31T03:54:17;7.78;;;5.22;;
38222;SDS011;24024;51.186;6.458;2023-10-31T03:56:46;9.15;;;5.25;;
38222;SDS011;24024;51.186;6.458;2023-10-31T03:59:18;5.90;;;4.60;;
38222;SDS011;24024;51.186;6.458;2023-10-31T04:01:47;6.13;;;4.25;;
38222;SDS011;24024;51.186;6.458;2023-10-31T04:04:16;7.18;;;4.97;;
38222;SDS011;24024;51.186;6.458;2023-10-31T04:06:43;6.32;;;4.30;;
38222;SDS011;24024;51.186;6.458;2023-10-31T04:09:10;6.97;;;4.72;;
38222;SDS011;24024;51.186;6.458;2023-10-31T04:11:36;8.18;;;4.40;;
38222;SDS011;24024;51.186;6.458;2023-10-31T04:14:04;5.75;;;4.22;;
38222;SDS011;24024;51.186;6.458;2023-10-31T04:16:34;9.07;;;4.63;;
38222;SDS011;24024;51.186;6.458;2023-10-31T04:21:31;6.28;;;4.45;;
38222;SDS011;24024;51.186;6.458;2023-10-31T04:23:58;5.82;;;4.22;;
38222;SDS011;24024;51.186;6.458;2023-10-31T04:26:27;7.47;;;4.35;;
38222;SDS011;24024;51.186;6.458;2023-10-31T04:28:56;7.88;;;4.45;;
38222;SDS011;24024;51.186;6.458;2023-10-31T04:31:23;5.97;;;4.30;;
38222;SDS011;24024;51.186;6.458;2023-10-31T04:34:06;8.50;;;5.00;;
38222;SDS011;24024;51.186;6.458;2023-10-31T04:36:34;8.68;;;5.05;;
38222;SDS011;24024;51.186;6.458;2023-10-31T04:39:00;6.80;;;4.68;;
38222;SDS011;24024;51.186;6.458;2023-10-31T04:41:29;7.78;;;4.57;;
38222;SDS011;24024;51.186;6.458;2023-10-31T04:43:56;5.60;;;4.20;;
38222;SDS011;24024;51.186;6.458;2023-10-31T04:46:24;6.47;;;4.50;;
38222;SDS011;24024;51.186;6.458;2023-10-31T04:48:53;8.18;;;4.93;;
38222;SDS011;24024;51.186;6.458;2023-10-31T04:51:22;6.28;;;4.22;;
38222;SDS011;24024;51.186;6.458;2023-10-31T04:53:49;6.43;;;4.88;;
38222;SDS011;24024;51.186;6.458;2023-10-31T04:56:18;7.65;;;5.05;;
38222;SDS011;24024;51.186;6.458;2023-10-31T04:58:45;8.90;;;4.45;;
38222;SDS011;24024;51.186;6.458;2023-10-31T05:01:14;6.80;;;4.13;;
38222;SDS011;24024;51.186;6.458;2023-10-31T05:03:40;9.85;;;4.82;;
38222;SDS011;24024;51.186;6.458;2023-10-31T05:06:07;7.13;;;4.53;;
38222;SDS011;24024;51.186;6.458;2023-10-31T05:08:36;6.30;;;4.10;;
38222;SDS011;24024;51.186;6.458;2023-10-31T05:11:03;5.85;;;4.13;;
38222;SDS011;24024;51.186;6.458;2023-10-31T05:13:30;7.65;;;4.47;;
38222;SDS011;24024;51.186;6.458;2023-10-31T05:16:02;5.85;;;4.18;;
38222;SDS011;24024;51.186;6.458;2023-10-31T05:18:29;8.13;;;5.15;;
38222;SDS011;24024;51.186;6.458;2023-10-31T05:20:58;9.63;;;4.93;;
38222;SDS011;24024;51.186;6.458;2023-10-31T05:23:24;7.70;;;4.53;;
38222;SDS011;24024;51.186;6.458;2023-10-31T05:25:51;5.68;;;4.30;;
38222;SDS011;24024;51.186;6.458;2023-10-31T05:28:21;6.07;;;4.40;;
38222;SDS011;24024;51.186;6.458;2023-10-31T05:30:48;6.93;;;4.30;;
38222;SDS011;24024;51.186;6.458;2023-10-31T05:33:17;7.68;;;4.45;;
38222;SDS011;24024;51.186;6.458;2023-10-31T05:35:44;9.13;;;5.05;;
38222;SDS011;24024;51.186;6.458;2023-10-31T05:38:11;6.18;;;4.75;;
38222;SDS011;24024;51.186;6.458;2023-10-31T05:40:38;9.10;;;4.90;;
38222;SDS011;24024;51.186;6.458;2023-10-31T05:43:07;7.20;;;4.95;;
38222;SDS011;24024;51.186;6.458;2023-10-31T05:45:34;7.63;;;5.50;;
38222;SDS011;24024;51.186;6.458;2023-10-31T05:48:01;7.70;;;5.50;;
38222;SDS011;24024;51.186;6.458;2023-10-31T05:50:28;8.32;;;5.18;;
38222;SDS011;24024;51.186;6.458;2023-10-31T05:52:54;7.00;;;4.75;;
38222;SDS011;24024;51.186;6.458;2023-10-31T05:55:23;9.18;;;5.72;;
38222;SDS011;24024;51.186;6.458;2023-10-31T05:57:50;9.65;;;6.10;;
38222;SDS011;24024;51.186;6.458;2023-10-31T06:00:17;9.43;;;5.65;;
38222;SDS011;24024;51.186;6.458;2023-10-31T06:02:44;8.18;;;5.82;;
38222;SDS011;24024;51.186;6.458;2023-10-31T06:05:11;7.57;;;5.63;;
38222;SDS011;24024;51.186;6.458;2023-10-31T06:07:38;8.93;;;5.65;;
38222;SDS011;24024;51.186;6.458;2023-10-31T06:10:04;8.10;;;6.13;;
38222;SDS011;24024;51.186;6.458;2023-10-31T06:12:32;6.70;;;5.63;;
38222;SDS011;24024;51.186;6.458;2023-10-31T06:15:04;7.97;;;5.90;;
38222;SDS011;24024;51.186;6.458;2023-10-31T06:17:31;8.77;;;5.95;;
38222;SDS011;24024;51.186;6.458;2023-10-31T06:20:00;7.72;;;5.43;;
38222;SDS011;24024;51.186;6.458;2023-10-31T06:22:32;11.35;;;6.00;;
38222;SDS011;24024;51.186;6.458;2023-10-31T06:24:58;9.25;;;5.60;;
38222;SDS011;24024;51.186;6.458;2023-10-31T06:27:25;7.60;;;5.40;;
38222;SDS011;24024;51.186;6.458;2023-10-31T06:29:54;9.13;;;5.97;;
38222;SDS011;24024;51.186;6.458;2023-10-31T06:32:43;8.63;;;6.55;;
38222;SDS011;24024;51.186;6.458;2023-10-31T06:35:10;8.15;;;6.30;;
38222;SDS011;24024;51.186;6.458;2023-10-31T06:37:37;9.30;;;5.82;;
38222;SDS011;24024;51.186;6.458;2023-10-31T06:40:06;7.45;;;6.15;;
38222;SDS011;24024;51.186;6.458;2023-10-31T06:42:33;7.50;;;5.80;;
38222;SDS011;24024;51.186;6.458;2023-10-31T06:45:01;7.30;;;5.50;;
38222;SDS011;24024;51.186;6.458;2023-10-31T06:47:31;8.15;;;6.15;;
38222;SDS011;24024;51.186;6.458;2023-10-31T06:50:02;10.52;;;6.53;;
38222;SDS011;24024;51.186;6.458;2023-10-31T06:52:31;8.93;;;6.43;;
38222;SDS011;24024;51.186;6.458;2023-10-31T06:54:58;8.63;;;6.60;;
38222;SDS011;24024;51.186;6.458;2023-10-31T06:57:25;8.70;;;6.88;;
38222;SDS011;24024;51.186;6.458;2023-10-31T06:59:52;10.07;;;7.07;;
38222;SDS011;24024;51.186;6.458;2023-10-31T07:02:19;11.05;;;6.70;;
38222;SDS011;24024;51.186;6.458;2023-10-31T07:04:46;7.57;;;6.07;;
38222;SDS011;24024;51.186;6.458;2023-10-31T07:07:15;9.68;;;7.03;;
38222;SDS011;24024;51.186;6.458;2023-10-31T07:09:42;11.63;;;7.88;;
38222;SDS011;24024;51.186;6.458;2023-10-31T07:12:09;9.82;;;7.47;;
38222;SDS011;24024;51.186;6.458;2023-10-31T07:14:35;12.05;;;7.40;;
38222;SDS011;24024;51.186;6.458;2023-10-31T07:17:03;9.50;;;6.28;;
38222;SDS011;24024;51.186;6.458;2023-10-31T07:19:30;9.20;;;6.70;;
38222;SDS011;24024;51.186;6.458;2023-10-31T07:21:56;7.35;;;6.03;;
38222;SDS011;24024;51.186;6.458;2023-10-31T07:24:23;7.93;;;6.22;;
38222;SDS011;24024;51.186;6.458;2023-10-31T07:26:55;10.07;;;6.47;;
38222;SDS011;24024;51.186;6.458;2023-10-31T07:29:22;7.85;;;5.85;;
38222;SDS011;24024;51.186;6.458;2023-10-31T07:31:49;9.27;;;6.35;;
38222;SDS011;24024;51.186;6.458;2023-10-31T07:34:16;10.20;;;6.25;;
38222;SDS011;24024;51.186;6.458;2023-10-31T07:36:42;9.25;;;6.65;;
38222;SDS011;24024;51.186;6.458;2023-10-31T07:39:11;7.55;;;6.05;;
38222;SDS011;24024;51.186;6.458;2023-10-31T07:41:39;9.15;;;6.47;;
38222;SDS011;24024;51.186;6.458;2023-10-31T07:44:06;7.35;;;5.80;;
38222;SDS011;24024;51.186;6.458;2023-10-31T07:46:35;9.25;;;6.32;;
38222;SDS011;24024;51.186;6.458;2023-10-31T07:49:07;11.73;;;6.10;;
38222;SDS011;24024;51.186;6.458;2023-10-31T07:51:35;7.05;;;5.97;;
38222;SDS011;24024;51.186;6.458;2023-10-31T07:54:02;9.27;;;6.05;;
38222;SDS011;24024;51.186;6.458;2023-10-31T07:56:29;8.93;;;6.35;;
38222;SDS011;24024;51.186;6.458;2023-10-31T07:58:59;8.70;;;6.47;;
38222;SDS011;24024;51.186;6.458;2023-10-31T08:01:27;9.50;;;6.13;;
38222;SDS011;24024;51.186;6.458;2023-10-31T08:03:54;8.05;;;6.22;;
38222;SDS011;24024;51.186;6.458;2023-10-31T08:06:24;8.02;;;6.30;;
38222;SDS011;24024;51.186;6.458;2023-10-31T08:08:55;9.40;;;6.75;;
38222;SDS011;24024;51.186;6.458;2023-10-31T08:11:23;8.00;;;6.07;;
38222;SDS011;24024;51.186;6.458;2023-10-31T08:13:52;9.30;;;6.53;;
38222;SDS011;24024;51.186;6.458;2023-10-31T08:16:25;11.07;;;6.90;;
38222;SDS011;24024;51.186;6.458;2023-10-31T08:18:52;10.40;;;7.47;;
38222;SDS011;24024;51.186;6.458;2023-10-31T08:21:21;9.10;;;6.55;;
38222;SDS011;24024;51.186;6.458;2023-10-31T08:23:48;10.00;;;7.05;;
38222;SDS011;24024;51.186;6.458;2023-10-31T08:26:17;8.60;;;6.90;;
38222;SDS011;24024;51.186;6.458;2023-10-31T08:28:46;10.10;;;6.85;;
38222;SDS011;24024;51.186;6.458;2023-10-31T08:31:13;9.38;;;7.13;;
38222;SDS011;24024;51.186;6.458;2023-10-31T08:33:39;8.68;;;6.78;;
38222;SDS011;24024;51.186;6.458;2023-10-31T08:36:06;8.77;;;6.63;;
38222;SDS011;24024;51.186;6.458;2023-10-31T08:38:33;9.80;;;7.07;;
38222;SDS011;24024;51.186;6.458;2023-10-31T08:41:00;9.85;;;6.90;;
38222;SDS011;24024;51.186;6.458;2023-10-31T08:43:27;8.15;;;6.35;;
38222;SDS011;24024;51.186;6.458;2023-10-31T08:45:54;10.20;;;6.97;;
38222;SDS011;24024;51.186;6.458;2023-10-31T08:48:25;9.45;;;6.97;;
38222;SDS011;24024;51.186;6.458;2023-10-31T08:50:52;10.32;;;6.82;;
38222;SDS011;24024;51.186;6.458;2023-10-31T08:53:22;9.75;;;7.00;;
38222;SDS011;24024;51.186;6.458;2023-10-31T08:55:49;9.50;;;7.20;;
38222;SDS011;24024;51.186;6.458;2023-10-31T08:58:18;11.85;;;7.00;;
38222;SDS011;24024;51.186;6.458;2023-10-31T09:00:44;13.60;;;7.15;;
38222;SDS011;24024;51.186;6.458;2023-10-31T09:03:11;10.55;;;7.00;;
38222;SDS011;24024;51.186;6.458;2023-10-31T09:05:39;10.93;;;7.00;;
38222;SDS011;24024;51.186;6.458;2023-10-31T09:08:06;12.45;;;7.30;;
38222;SDS011;24024;51.186;6.458;2023-10-31T09:10:36;12.15;;;7.50;;
38222;SDS011;24024;51.186;6.458;2023-10-31T09:13:07;10.85;;;6.90;;
38222;SDS011;24024;51.186;6.458;2023-10-31T09:15:34;12.10;;;7.10;;
38222;SDS011;24024;51.186;6.458;2023-10-31T09:18:03;10.20;;;7.47;;
38222;SDS011;24024;51.186;6.458;2023-10-31T09:20:30;7.88;;;6.13;;
38222;SDS011;24024;51.186;6.458;2023-10-31T09:22:57;9.18;;;5.97;;
38222;SDS011;24024;51.186;6.458;2023-10-31T09:25:28;8.00;;;5.68;;
38222;SDS011;24024;51.186;6.458;2023-10-31T09:28:00;8.57;;;5.32;;
38222;SDS011;24024;51.186;6.458;2023-10-31T09:30:30;9.05;;;5.63;;
38222;SDS011;24024;51.186;6.458;2023-10-31T09:32:59;7.93;;;4.90;;
38222;SDS011;24024;51.186;6.458;2023-10-31T09:35:25;8.30;;;5.20;;
38222;SDS011;24024;51.186;6.458;2023-10-31T09:37:55;7.68;;;5.28;;
38222;SDS011;24024;51.186;6.458;2023-10-31T09:40:24;8.40;;;4.88;;
38222;SDS011;24024;51.186;6.458;2023-10-31T09:42:51;7.47;;;4.10;;
38222;SDS011;24024;51.186;6.458;2023-10-31T09:45:20;9.60;;;4.97;;
38222;SDS011;24024;51.186;6.458;2023-10-31T09:47:47;10.95;;;5.53;;
38222;SDS011;24024;51.186;6.458;2023-10-31T09:50:14;7.82;;;4.30;;
38222;SDS011;24024;51.186;6.458;2023-10-31T09:52:41;7.75;;;4.07;;
38222;SDS011;24024;51.186;6.458;2023-10-31T09:55:11;8.93;;;3.83;;
38222;SDS011;24024;51.186;6.458;2023-10-31T09:57:38;8.93;;;3.75;;
38222;SDS011;24024;51.186;6.458;2023-10-31T10:00:07;8.88;;;3.72;;
38222;SDS011;24024;51.186;6.458;2023-10-31T10:02:34;7.55;;;3.50;;
38222;SDS011;24024;51.186;6.458;2023-10-31T10:05:09;8.97;;;3.87;;
38222;SDS011;24024;51.186;6.458;2023-10-31T10:07:36;5.78;;;3.45;;
38222;SDS011;24024;51.186;6.458;2023-10-31T10:10:10;6.55;;;3.75;;
38222;SDS011;24024;51.186;6.458;2023-10-31T10:12:40;6.75;;;3.13;;
38222;SDS011;24024;51.186;6.458;2023-10-31T10:15:10;5.93;;;3.27;;
38222;SDS011;24024;51.186;6.458;2023-10-31T10:17:38;6.72;;;2.95;;
38222;SDS011;24024;51.186;6.458;2023-10-31T10:20:08;7.10;;;3.30;;
38222;SDS011;24024;51.186;6.458;2023-10-31T10:22:40;7.30;;;3.67;;
38222;SDS011;24024;51.186;6.458;2023-10-31T10:25:12;6.27;;;3.17;;
38222;SDS011;24024;51.186;6.458;2023-10-31T10:27:45;9.77;;;3.42;;
38222;SDS011;24024;51.186;6.458;2023-10-31T10:30:12;6.18;;;3.08;;
38222;SDS011;24024;51.186;6.458;2023-10-31T10:32:40;5.25;;;2.60;;
38222;SDS011;24024;51.186;6.458;2023-10-31T10:35:07;6.45;;;3.03;;
38222;SDS011;24024;51.186;6.458;2023-10-31T10:37:39;4.63;;;2.47;;
38222;SDS011;24024;51.186;6.458;2023-10-31T10:40:10;6.25;;;2.70;;
38222;SDS011;24024;51.186;6.458;2023-10-31T10:42:43;5.60;;;2.75;;
38222;SDS011;24024;51.186;6.458;2023-10-31T10:45:15;5.13;;;2.47;;
38222;SDS011;24024;51.186;6.458;2023-10-31T10:47:46;4.45;;;2.20;;
38222;SDS011;24024;51.186;6.458;2023-10-31T10:50:15;5.00;;;2.70;;
38222;SDS011;24024;51.186;6.458;2023-10-31T10:56:03;6.75;;;2.10;;
38222;SDS011;24024;51.186;6.458;2023-10-31T10:58:44;7.40;;;2.33;;
38222;SDS011;24024;51.186;6.458;2023-10-31T11:01:22;5.78;;;2.33;;
38222;SDS011;24024;51.186;6.458;2023-10-31T11:03:49;6.95;;;2.20;;
38222;SDS011;24024;51.186;6.458;2023-10-31T11:06:20;3.95;;;2.20;;
38222;SDS011;24024;51.186;6.458;2023-10-31T11:08:47;4.70;;;2.00;;
38222;SDS011;24024;51.186;6.458;2023-10-31T11:11:14;4.32;;;2.08;;
38222;SDS011;24024;51.186;6.458;2023-10-31T11:16:15;4.82;;;2.35;;
38222;SDS011;24024;51.186;6.458;2023-10-31T11:18:48;5.10;;;2.20;;
38222;SDS011;24024;51.186;6.458;2023-10-31T11:21:15;5.00;;;1.65;;
38222;SDS011;24024;51.186;6.458;2023-10-31T11:23:42;3.85;;;1.70;;
38222;SDS011;24024;51.186;6.458;2023-10-31T11:26:09;4.80;;;2.00;;
38222;SDS011;24024;51.186;6.458;2023-10-31T11:28:36;5.13;;;1.98;;
38222;SDS011;24024;51.186;6.458;2023-10-31T11:31:05;3.10;;;1.65;;
38222;SDS011;24024;51.186;6.458;2023-10-31T11:33:34;5.78;;;2.20;;
38222;SDS011;24024;51.186;6.458;2023-10-31T11:36:05;5.40;;;2.20;;
38222;SDS011;24024;51.186;6.458;2023-10-31T11:38:42;4.28;;;1.90;;
38222;SDS011;24024;51.186;6.458;2023-10-31T11:41:12;6.50;;;2.00;;
38222;SDS011;24024;51.186;6.458;2023-10-31T11:43:50;4.05;;;1.77;;
38222;SDS011;24024;51.186;6.458;2023-10-31T11:46:20;3.58;;;1.50;;
38222;SDS011;24024;51.186;6.458;2023-10-31T11:48:55;3.40;;;1.52;;
38222;SDS011;24024;51.186;6.458;2023-10-31T11:51:24;4.10;;;1.85;;
38222;SDS011;24024;51.186;6.458;2023-10-31T11:53:51;4.13;;;1.60;;
38222;SDS011;24024;51.186;6.458;2023-10-31T11:56:20;7.57;;;2.20;;
38222;SDS011;24024;51.186;6.458;2023-10-31T11:58:56;4.10;;;2.05;;
38222;SDS011;24024;51.186;6.458;2023-10-31T12:04:00;4.30;;;2.33;;
38222;SDS011;24024;51.186;6.458;2023-10-31T12:06:33;6.45;;;2.20;;
38222;SDS011;24024;51.186;6.458;2023-10-31T12:09:02;5.88;;;2.47;;
38222;SDS011;24024;51.186;6.458;2023-10-31T12:11:29;5.80;;;2.42;;
38222;SDS011;24024;51.186;6.458;2023-10-31T12:14:00;5.35;;;2.60;;
38222;SDS011;24024;51.186;6.458;2023-10-31T12:16:32;4.70;;;2.00;;
38222;SDS011;24024;51.186;6.458;2023-10-31T12:19:01;5.20;;;2.30;;
38222;SDS011;24024;51.186;6.458;2023-10-31T12:24:10;11.05;;;2.83;;
38222;SDS011;24024;51.186;6.458;2023-10-31T12:26:41;7.40;;;2.90;;
38222;SDS011;24024;51.186;6.458;2023-10-31T12:29:12;5.53;;;2.25;;
38222;SDS011;24024;51.186;6.458;2023-10-31T12:31:57;4.93;;;2.38;;
38222;SDS011;24024;51.186;6.458;2023-10-31T12:34:24;7.25;;;2.97;;
38222;SDS011;24024;51.186;6.458;2023-10-31T12:36:52;8.32;;;2.20;;
38222;SDS011;24024;51.186;6.458;2023-10-31T12:39:23;4.40;;;1.92;;
38222;SDS011;24024;51.186;6.458;2023-10-31T12:41:52;4.40;;;1.60;;
38222;SDS011;24024;51.186;6.458;2023-10-31T12:44:23;6.18;;;1.50;;
38222;SDS011;24024;51.186;6.458;2023-10-31T12:46:55;4.97;;;1.70;;
38222;SDS011;24024;51.186;6.458;2023-10-31T12:49:24;2.95;;;1.58;;
38222;SDS011;24024;51.186;6.458;2023-10-31T12:51:59;3.63;;;1.55;;
38222;SDS011;24024;51.186;6.458;2023-10-31T12:54:27;4.38;;;1.55;;
38222;SDS011;24024;51.186;6.458;2023-10-31T12:56:58;5.32;;;1.75;;
38222;SDS011;24024;51.186;6.458;2023-10-31T12:59:28;6.35;;;1.88;;
38222;SDS011;24024;51.186;6.458;2023-10-31T13:01:55;5.35;;;2.67;;
38222;SDS011;24024;51.186;6.458;2023-10-31T13:04:26;4.90;;;1.63;;
38222;SDS011;24024;51.186;6.458;2023-10-31T13:06:57;4.28;;;2.00;;
38222;SDS011;24024;51.186;6.458;2023-10-31T13:09:32;5.57;;;1.70;;
38222;SDS011;24024;51.186;6.458;2023-10-31T13:12:05;5.10;;;1.30;;
38222;SDS011;24024;51.186;6.458;2023-10-31T13:14:34;2.83;;;1.20;;
38222;SDS011;24024;51.186;6.458;2023-10-31T13:17:02;4.30;;;1.30;;
38222;SDS011;24024;51.186;6.458;2023-10-31T13:19:30;4.25;;;1.25;;
38222;SDS011;24024;51.186;6.458;2023-10-31T13:21:57;5.15;;;1.20;;
38222;SDS011;24024;51.186;6.458;2023-10-31T13:24:26;6.80;;;1.50;;
38222;SDS011;24024;51.186;6.458;2023-10-31T13:26:54;4.45;;;1.42;;
38222;SDS011;24024;51.186;6.458;2023-10-31T13:29:21;7.93;;;1.30;;
38222;SDS011;24024;51.186;6.458;2023-10-31T13:31:51;3.88;;;1.25;;
38222;SDS011;24024;51.186;6.458;2023-10-31T13:34:18;3.85;;;1.20;;
38222;SDS011;24024;51.186;6.458;2023-10-31T13:36:45;5.78;;;1.30;;
38222;SDS011;24024;51.186;6.458;2023-10-31T13:39:13;4.30;;;1.40;;
38222;SDS011;24024;51.186;6.458;2023-10-31T13:41:45;5.65;;;1.17;;
38222;SDS011;24024;51.186;6.458;2023-10-31T13:44:11;6.60;;;1.20;;
38222;SDS011;24024;51.186;6.458;2023-10-31T13:46:38;4.93;;;1.40;;
38222;SDS011;24024;51.186;6.458;2023-10-31T13:49:07;3.92;;;1.10;;
38222;SDS011;24024;51.186;6.458;2023-10-31T13:51:34;5.25;;;1.40;;
38222;SDS011;24024;51.186;6.458;2023-10-31T13:54:03;5.05;;;1.50;;
38222;SDS011;24024;51.186;6.458;2023-10-31T13:56:30;5.55;;;1.20;;
38222;SDS011;24024;51.186;6.458;2023-10-31T13:59:01;6.40;;;1.55;;
38222;SDS011;24024;51.186;6.458;2023-10-31T14:01:30;4.22;;;1.20;;
38222;SDS011;24024;51.186;6.458;2023-10-31T14:03:57;4.63;;;1.25;;
38222;SDS011;24024;51.186;6.458;2023-10-31T14:06:29;7.05;;;1.80;;
38222;SDS011;24024;51.186;6.458;2023-10-31T14:08:58;9.15;;;1.67;;
38222;SDS011;24024;51.186;6.458;2023-10-31T14:11:26;6.82;;;1.40;;
38222;SDS011;24024;51.186;6.458;2023-10-31T14:13:55;5.10;;;1.30;;
38222;SDS011;24024;51.186;6.458;2023-10-31T14:16:22;6.18;;;2.10;;
38222;SDS011;24024;51.186;6.458;2023-10-31T14:18:49;6.30;;;1.77;;
38222;SDS011;24024;51.186;6.458;2023-10-31T14:21:19;6.32;;;1.50;;
38222;SDS011;24024;51.186;6.458;2023-10-31T14:23:45;7.45;;;1.85;;
38222;SDS011;24024;51.186;6.458;2023-10-31T14:26:23;3.50;;;1.20;;
38222;SDS011;24024;51.186;6.458;2023-10-31T14:28:50;5.55;;;1.60;;
38222;SDS011;24024;51.186;6.458;2023-10-31T14:31:17;6.43;;;2.03;;
38222;SDS011;24024;51.186;6.458;2023-10-31T14:33:46;6.80;;;2.70;;
38222;SDS011;24024;51.186;6.458;2023-10-31T14:36:18;6.05;;;1.33;;
38222;SDS011;24024;51.186;6.458;2023-10-31T14:38:45;4.18;;;1.30;;
38222;SDS011;24024;51.186;6.458;2023-10-31T14:41:12;5.18;;;1.35;;
38222;SDS011;24024;51.186;6.458;2023-10-31T14:43:40;6.53;;;1.42;;
38222;SDS011;24024;51.186;6.458;2023-10-31T14:46:07;5.85;;;1.38;;
38222;SDS011;24024;51.186;6.458;2023-10-31T14:48:34;4.43;;;1.55;;
38222;SDS011;24024;51.186;6.458;2023-10-31T14:51:03;5.03;;;1.40;;
38222;SDS011;24024;51.186;6.458;2023-10-31T14:53:32;9.18;;;1.40;;
38222;SDS011;24024;51.186;6.458;2023-10-31T14:55:59;8.48;;;2.22;;
38222;SDS011;24024;51.186;6.458;2023-10-31T14:58:27;6.95;;;1.50;;
38222;SDS011;24024;51.186;6.458;2023-10-31T15:00:54;6.75;;;1.80;;
38222;SDS011;24024;51.186;6.458;2023-10-31T15:03:21;6.32;;;2.03;;
38222;SDS011;24024;51.186;6.458;2023-10-31T15:05:48;8.73;;;2.45;;
38222;SDS011;24024;51.186;6.458;2023-10-31T15:08:15;8.50;;;2.40;;